Terminal Aerodrome Forecast
Issued by NWS

Current Version | Previous Version | Graphics & Text | Print | Product List | Glossary On
Versions: 1 2 3 4 5 6 7 8 9 10 11 12 13 14 15 16 17 18 19 20 21 22 23 24 25 26 27
000
FTUS41 KRLX 051753
TAFCKB
TAF
KCKB 051753Z 0518/0618 35005KT 5SM -SHRA BR OVC010
     FM060300 35006KT 4SM -SHRA BR OVC008
     FM060600 35006KT 6SM BR OVC007
     FM061500 33010KT P6SM -SHRA SCT007 OVC015=

USA.gov is the U.S. government's official web portal to all federal, state and local government web resources and services.